sensor_id;sensor_type;location;lat;lon;timestamp;temperature;humidity
46732;DHT22;32477;51.474;5.696;2023-07-02T00:02:21;17.20;99.90
46732;DHT22;32477;51.474;5.696;2023-07-02T00:04:47;17.10;99.90
46732;DHT22;32477;51.474;5.696;2023-07-02T00:07:13;17.10;99.90
46732;DHT22;32477;51.474;5.696;2023-07-02T00:09:40;17.10;99.90
46732;DHT22;32477;51.474;5.696;2023-07-02T00:12:06;17.20;99.90
46732;DHT22;32477;51.474;5.696;2023-07-02T00:14:32;17.10;99.90
46732;DHT22;32477;51.474;5.696;2023-07-02T00:16:58;17.10;99.90
46732;DHT22;32477;51.474;5.696;2023-07-02T00:19:24;17.10;99.90
46732;DHT22;32477;51.474;5.696;2023-07-02T00:21:49;17.00;99.90
46732;DHT22;32477;51.474;5.696;2023-07-02T00:24:15;17.00;99.90
46732;DHT22;32477;51.474;5.696;2023-07-02T00:26:41;17.00;99.90
46732;DHT22;32477;51.474;5.696;2023-07-02T00:29:07;17.00;99.90
46732;DHT22;32477;51.474;5.696;2023-07-02T00:31:34;17.00;99.90
46732;DHT22;32477;51.474;5.696;2023-07-02T00:34:00;17.00;99.90
46732;DHT22;32477;51.474;5.696;2023-07-02T00:36:29;16.90;99.90
46732;DHT22;32477;51.474;5.696;2023-07-02T00:38:55;16.90;99.90
46732;DHT22;32477;51.474;5.696;2023-07-02T00:41:21;16.90;99.90
46732;DHT22;32477;51.474;5.696;2023-07-02T00:43:47;16.90;99.90
46732;DHT22;32477;51.474;5.696;2023-07-02T00:46:17;16.90;99.90
46732;DHT22;32477;51.474;5.696;2023-07-02T00:48:44;16.90;99.90
46732;DHT22;32477;51.474;5.696;2023-07-02T00:51:15;17.00;99.90
46732;DHT22;32477;51.474;5.696;2023-07-02T00:53:41;16.90;99.90
46732;DHT22;32477;51.474;5.696;2023-07-02T00:56:07;17.00;99.90
46732;DHT22;32477;51.474;5.696;2023-07-02T00:58:37;16.90;99.90
46732;DHT22;32477;51.474;5.696;2023-07-02T01:01:03;16.80;99.90
46732;DHT22;32477;51.474;5.696;2023-07-02T01:03:28;16.80;99.90
46732;DHT22;32477;51.474;5.696;2023-07-02T01:05:54;16.70;99.90
46732;DHT22;32477;51.474;5.696;2023-07-02T01:08:20;16.70;99.90
46732;DHT22;32477;51.474;5.696;2023-07-02T01:10:46;16.60;99.90
46732;DHT22;32477;51.474;5.696;2023-07-02T01:13:15;16.50;99.90
46732;DHT22;32477;51.474;5.696;2023-07-02T01:15:42;16.50;99.90
46732;DHT22;32477;51.474;5.696;2023-07-02T01:18:10;16.60;99.90
46732;DHT22;32477;51.474;5.696;2023-07-02T01:20:37;16.60;99.90
46732;DHT22;32477;51.474;5.696;2023-07-02T01:23:04;16.60;99.90
46732;DHT22;32477;51.474;5.696;2023-07-02T01:25:29;16.60;99.90
46732;DHT22;32477;51.474;5.696;2023-07-02T01:27:55;16.60;99.90
46732;DHT22;32477;51.474;5.696;2023-07-02T01:30:24;16.50;99.90
46732;DHT22;32477;51.474;5.696;2023-07-02T01:32:49;16.60;99.90
46732;DHT22;32477;51.474;5.696;2023-07-02T01:35:15;16.50;99.90
46732;DHT22;32477;51.474;5.696;2023-07-02T01:37:41;16.50;99.90
46732;DHT22;32477;51.474;5.696;2023-07-02T01:40:07;16.50;99.90
46732;DHT22;32477;51.474;5.696;2023-07-02T01:42:36;16.40;99.90
46732;DHT22;32477;51.474;5.696;2023-07-02T01:45:01;16.40;99.90
46732;DHT22;32477;51.474;5.696;2023-07-02T01:47:27;16.40;99.90
46732;DHT22;32477;51.474;5.696;2023-07-02T01:49:53;16.40;99.90
46732;DHT22;32477;51.474;5.696;2023-07-02T01:52:18;16.30;99.90
46732;DHT22;32477;51.474;5.696;2023-07-02T01:54:45;16.30;99.90
46732;DHT22;32477;51.474;5.696;2023-07-02T01:57:11;16.30;99.90
46732;DHT22;32477;51.474;5.696;2023-07-02T01:59:37;16.30;99.90
46732;DHT22;32477;51.474;5.696;2023-07-02T02:02:02;16.30;99.90
46732;DHT22;32477;51.474;5.696;2023-07-02T02:04:28;16.30;99.90
46732;DHT22;32477;51.474;5.696;2023-07-02T02:06:53;16.30;99.90
46732;DHT22;32477;51.474;5.696;2023-07-02T02:09:19;16.30;99.90
46732;DHT22;32477;51.474;5.696;2023-07-02T02:11:47;16.20;99.90
46732;DHT22;32477;51.474;5.696;2023-07-02T02:14:13;16.20;99.90
46732;DHT22;32477;51.474;5.696;2023-07-02T02:16:39;16.20;99.90
46732;DHT22;32477;51.474;5.696;2023-07-02T02:19:05;16.10;99.90
46732;DHT22;32477;51.474;5.696;2023-07-02T02:21:31;16.10;99.90
46732;DHT22;32477;51.474;5.696;2023-07-02T02:23:57;16.10;99.90
46732;DHT22;32477;51.474;5.696;2023-07-02T02:26:23;16.10;99.90
46732;DHT22;32477;51.474;5.696;2023-07-02T02:28:51;16.00;99.90
46732;DHT22;32477;51.474;5.696;2023-07-02T02:31:16;16.00;99.90
46732;DHT22;32477;51.474;5.696;2023-07-02T02:33:42;16.00;99.90
46732;DHT22;32477;51.474;5.696;2023-07-02T02:36:08;16.10;99.90
46732;DHT22;32477;51.474;5.696;2023-07-02T02:38:33;16.10;99.90
46732;DHT22;32477;51.474;5.696;2023-07-02T02:40:59;16.10;99.90
46732;DHT22;32477;51.474;5.696;2023-07-02T02:43:25;16.10;99.90
46732;DHT22;32477;51.474;5.696;2023-07-02T02:45:51;16.10;99.90
46732;DHT22;32477;51.474;5.696;2023-07-02T02:48:17;16.10;99.90
46732;DHT22;32477;51.474;5.696;2023-07-02T02:50:42;16.10;99.90
46732;DHT22;32477;51.474;5.696;2023-07-02T02:53:09;16.10;99.90
46732;DHT22;32477;51.474;5.696;2023-07-02T02:55:35;16.10;99.90
46732;DHT22;32477;51.474;5.696;2023-07-02T02:58:01;16.00;99.90
46732;DHT22;32477;51.474;5.696;2023-07-02T03:00:26;16.00;99.90
46732;DHT22;32477;51.474;5.696;2023-07-02T03:02:52;15.90;99.90
46732;DHT22;32477;51.474;5.696;2023-07-02T03:05:18;15.90;99.90
46732;DHT22;32477;51.474;5.696;2023-07-02T03:07:43;15.90;99.90
46732;DHT22;32477;51.474;5.696;2023-07-02T03:10:09;15.90;99.90
46732;DHT22;32477;51.474;5.696;2023-07-02T03:12:35;15.90;99.90
46732;DHT22;32477;51.474;5.696;2023-07-02T03:15:00;16.00;99.90
46732;DHT22;32477;51.474;5.696;2023-07-02T03:17:26;16.00;99.90
46732;DHT22;32477;51.474;5.696;2023-07-02T03:19:52;16.00;99.90
46732;DHT22;32477;51.474;5.696;2023-07-02T03:22:17;16.00;99.90
46732;DHT22;32477;51.474;5.696;2023-07-02T03:24:43;16.10;99.90
46732;DHT22;32477;51.474;5.696;2023-07-02T03:27:09;16.00;99.90
46732;DHT22;32477;51.474;5.696;2023-07-02T03:29:35;16.00;99.90
46732;DHT22;32477;51.474;5.696;2023-07-02T03:32:01;15.90;99.90
46732;DHT22;32477;51.474;5.696;2023-07-02T03:34:27;15.90;99.90
46732;DHT22;32477;51.474;5.696;2023-07-02T03:36:53;15.90;99.90
46732;DHT22;32477;51.474;5.696;2023-07-02T03:39:18;15.80;99.90
46732;DHT22;32477;51.474;5.696;2023-07-02T03:41:44;15.80;99.90
46732;DHT22;32477;51.474;5.696;2023-07-02T03:44:10;15.70;99.90
46732;DHT22;32477;51.474;5.696;2023-07-02T03:46:36;15.80;99.90
46732;DHT22;32477;51.474;5.696;2023-07-02T03:49:02;15.80;99.90
46732;DHT22;32477;51.474;5.696;2023-07-02T03:51:28;15.90;99.90
46732;DHT22;32477;51.474;5.696;2023-07-02T03:53:54;16.00;99.90
46732;DHT22;32477;51.474;5.696;2023-07-02T03:56:20;16.00;99.90
46732;DHT22;32477;51.474;5.696;2023-07-02T03:58:46;16.00;99.90
46732;DHT22;32477;51.474;5.696;2023-07-02T04:01:12;16.00;99.90
46732;DHT22;32477;51.474;5.696;2023-07-02T04:03:37;16.00;99.90
46732;DHT22;32477;51.474;5.696;2023-07-02T04:06:03;16.00;99.90
46732;DHT22;32477;51.474;5.696;2023-07-02T04:08:31;15.90;99.90
46732;DHT22;32477;51.474;5.696;2023-07-02T04:10:57;15.90;99.90
46732;DHT22;32477;51.474;5.696;2023-07-02T04:13:22;15.80;99.90
46732;DHT22;32477;51.474;5.696;2023-07-02T04:15:48;15.80;99.90
46732;DHT22;32477;51.474;5.696;2023-07-02T04:18:14;15.70;99.90
46732;DHT22;32477;51.474;5.696;2023-07-02T04:20:39;15.60;99.90
46732;DHT22;32477;51.474;5.696;2023-07-02T04:23:06;15.50;99.90
46732;DHT22;32477;51.474;5.696;2023-07-02T04:25:32;15.40;99.90
46732;DHT22;32477;51.474;5.696;2023-07-02T04:27:57;15.40;99.90
46732;DHT22;32477;51.474;5.696;2023-07-02T04:30:24;15.40;99.90
46732;DHT22;32477;51.474;5.696;2023-07-02T04:32:51;15.50;99.90
46732;DHT22;32477;51.474;5.696;2023-07-02T04:35:17;15.50;99.90
46732;DHT22;32477;51.474;5.696;2023-07-02T04:37:42;15.70;99.90
46732;DHT22;32477;51.474;5.696;2023-07-02T04:40:08;15.70;99.90
46732;DHT22;32477;51.474;5.696;2023-07-02T04:42:38;15.80;99.90
46732;DHT22;32477;51.474;5.696;2023-07-02T04:45:05;16.00;99.90
46732;DHT22;32477;51.474;5.696;2023-07-02T04:47:31;16.00;99.90
46732;DHT22;32477;51.474;5.696;2023-07-02T04:49:57;16.00;99.90
46732;DHT22;32477;51.474;5.696;2023-07-02T04:52:23;16.00;99.90
46732;DHT22;32477;51.474;5.696;2023-07-02T04:54:49;16.10;99.90
46732;DHT22;32477;51.474;5.696;2023-07-02T04:57:15;16.10;99.90
46732;DHT22;32477;51.474;5.696;2023-07-02T04:59:43;16.20;99.90
46732;DHT22;32477;51.474;5.696;2023-07-02T05:02:10;16.30;99.90
46732;DHT22;32477;51.474;5.696;2023-07-02T05:04:36;16.30;99.90
46732;DHT22;32477;51.474;5.696;2023-07-02T05:07:03;16.30;99.90
46732;DHT22;32477;51.474;5.696;2023-07-02T05:09:29;16.40;99.90
46732;DHT22;32477;51.474;5.696;2023-07-02T05:11:55;16.40;99.90
46732;DHT22;32477;51.474;5.696;2023-07-02T05:14:20;16.50;99.90
46732;DHT22;32477;51.474;5.696;2023-07-02T05:16:46;16.70;99.90
46732;DHT22;32477;51.474;5.696;2023-07-02T05:19:12;16.70;99.90
46732;DHT22;32477;51.474;5.696;2023-07-02T05:21:37;16.80;99.90
46732;DHT22;32477;51.474;5.696;2023-07-02T05:24:03;17.00;99.90
46732;DHT22;32477;51.474;5.696;2023-07-02T05:26:29;17.20;99.90
46732;DHT22;32477;51.474;5.696;2023-07-02T05:28:54;17.40;99.90
46732;DHT22;32477;51.474;5.696;2023-07-02T05:31:20;17.60;99.90
46732;DHT22;32477;51.474;5.696;2023-07-02T05:33:46;17.60;99.90
46732;DHT22;32477;51.474;5.696;2023-07-02T05:36:11;17.80;99.90
46732;DHT22;32477;51.474;5.696;2023-07-02T05:38:37;17.90;99.90
46732;DHT22;32477;51.474;5.696;2023-07-02T05:41:03;17.80;99.90
46732;DHT22;32477;51.474;5.696;2023-07-02T05:43:29;17.90;99.90
46732;DHT22;32477;51.474;5.696;2023-07-02T05:45:57;17.90;99.90
46732;DHT22;32477;51.474;5.696;2023-07-02T05:48:22;17.90;99.90
46732;DHT22;32477;51.474;5.696;2023-07-02T05:50:48;17.90;99.90
46732;DHT22;32477;51.474;5.696;2023-07-02T05:53:13;18.10;99.90
46732;DHT22;32477;51.474;5.696;2023-07-02T05:55:39;18.30;99.90
46732;DHT22;32477;51.474;5.696;2023-07-02T05:58:04;18.80;99.90
46732;DHT22;32477;51.474;5.696;2023-07-02T06:00:30;19.10;99.90
46732;DHT22;32477;51.474;5.696;2023-07-02T06:02:56;19.10;99.90
46732;DHT22;32477;51.474;5.696;2023-07-02T06:05:21;18.90;99.90
46732;DHT22;32477;51.474;5.696;2023-07-02T06:07:47;18.80;99.90
46732;DHT22;32477;51.474;5.696;2023-07-02T06:10:12;18.70;99.90
46732;DHT22;32477;51.474;5.696;2023-07-02T06:12:38;18.70;99.90
46732;DHT22;32477;51.474;5.696;2023-07-02T06:15:04;18.60;99.90
46732;DHT22;32477;51.474;5.696;2023-07-02T06:17:29;18.60;99.90
46732;DHT22;32477;51.474;5.696;2023-07-02T06:19:56;18.70;99.90
46732;DHT22;32477;51.474;5.696;2023-07-02T06:22:22;18.80;99.90
46732;DHT22;32477;51.474;5.696;2023-07-02T06:24:49;18.90;99.90
46732;DHT22;32477;51.474;5.696;2023-07-02T06:27:14;19.00;99.90
46732;DHT22;32477;51.474;5.696;2023-07-02T06:29:40;19.20;99.90
46732;DHT22;32477;51.474;5.696;2023-07-02T06:32:06;19.50;99.90
46732;DHT22;32477;51.474;5.696;2023-07-02T06:34:31;19.60;99.90
46732;DHT22;32477;51.474;5.696;2023-07-02T06:36:57;19.80;99.90
46732;DHT22;32477;51.474;5.696;2023-07-02T06:39:22;19.80;99.90
46732;DHT22;32477;51.474;5.696;2023-07-02T06:41:48;19.60;99.90
46732;DHT22;32477;51.474;5.696;2023-07-02T06:44:14;19.40;99.90
46732;DHT22;32477;51.474;5.696;2023-07-02T06:46:39;19.40;99.90
46732;DHT22;32477;51.474;5.696;2023-07-02T06:49:05;19.30;99.90
46732;DHT22;32477;51.474;5.696;2023-07-02T06:51:30;19.60;99.90
46732;DHT22;32477;51.474;5.696;2023-07-02T06:53:56;19.70;99.90
46732;DHT22;32477;51.474;5.696;2023-07-02T06:56:21;19.60;99.90
46732;DHT22;32477;51.474;5.696;2023-07-02T06:58:47;19.90;99.90
46732;DHT22;32477;51.474;5.696;2023-07-02T07:01:12;20.10;99.90
46732;DHT22;32477;51.474;5.696;2023-07-02T07:03:38;20.20;99.90
46732;DHT22;32477;51.474;5.696;2023-07-02T07:06:04;20.10;99.90
46732;DHT22;32477;51.474;5.696;2023-07-02T07:08:29;20.50;99.90
46732;DHT22;32477;51.474;5.696;2023-07-02T07:10:55;20.70;99.90
46732;DHT22;32477;51.474;5.696;2023-07-02T07:13:21;20.90;99.90
46732;DHT22;32477;51.474;5.696;2023-07-02T07:15:46;21.20;99.90
46732;DHT22;32477;51.474;5.696;2023-07-02T07:18:12;21.20;99.90
46732;DHT22;32477;51.474;5.696;2023-07-02T07:20:39;21.30;99.90
46732;DHT22;32477;51.474;5.696;2023-07-02T07:23:08;21.70;99.90
46732;DHT22;32477;51.474;5.696;2023-07-02T07:25:34;22.30;99.90
46732;DHT22;32477;51.474;5.696;2023-07-02T07:28:00;22.40;98.90
46732;DHT22;32477;51.474;5.696;2023-07-02T07:30:26;22.30;98.60
46732;DHT22;32477;51.474;5.696;2023-07-02T07:32:52;22.00;98.60
46732;DHT22;32477;51.474;5.696;2023-07-02T07:35:18;21.70;98.70
46732;DHT22;32477;51.474;5.696;2023-07-02T07:37:44;21.60;98.50
46732;DHT22;32477;51.474;5.696;2023-07-02T07:40:10;21.30;98.50
46732;DHT22;32477;51.474;5.696;2023-07-02T07:42:36;21.40;97.50
46732;DHT22;32477;51.474;5.696;2023-07-02T07:45:03;21.50;97.50
46732;DHT22;32477;51.474;5.696;2023-07-02T07:47:29;21.50;96.80
46732;DHT22;32477;51.474;5.696;2023-07-02T07:49:54;21.70;96.80
46732;DHT22;32477;51.474;5.696;2023-07-02T07:52:20;21.70;96.90
46732;DHT22;32477;51.474;5.696;2023-07-02T07:54:46;21.80;96.80
46732;DHT22;32477;51.474;5.696;2023-07-02T07:57:11;21.80;96.50
46732;DHT22;32477;51.474;5.696;2023-07-02T07:59:37;21.70;96.80
46732;DHT22;32477;51.474;5.696;2023-07-02T08:02:03;21.80;97.10
46732;DHT22;32477;51.474;5.696;2023-07-02T08:04:28;21.90;96.50
46732;DHT22;32477;51.474;5.696;2023-07-02T08:06:54;22.20;96.50
46732;DHT22;32477;51.474;5.696;2023-07-02T08:09:20;22.20;96.10
46732;DHT22;32477;51.474;5.696;2023-07-02T08:11:46;22.20;96.30
46732;DHT22;32477;51.474;5.696;2023-07-02T08:14:12;22.00;96.40
46732;DHT22;32477;51.474;5.696;2023-07-02T08:16:38;22.50;96.20
46732;DHT22;32477;51.474;5.696;2023-07-02T08:19:03;23.60;94.60
46732;DHT22;32477;51.474;5.696;2023-07-02T08:21:29;23.50;94.00
46732;DHT22;32477;51.474;5.696;2023-07-02T08:23:54;22.90;93.90
46732;DHT22;32477;51.474;5.696;2023-07-02T08:26:20;22.70;94.30
46732;DHT22;32477;51.474;5.696;2023-07-02T08:28:45;22.80;94.20
46732;DHT22;32477;51.474;5.696;2023-07-02T08:31:11;23.80;94.20
46732;DHT22;32477;51.474;5.696;2023-07-02T08:33:37;24.30;92.80
46732;DHT22;32477;51.474;5.696;2023-07-02T08:36:02;24.40;92.70
46732;DHT22;32477;51.474;5.696;2023-07-02T08:38:28;24.10;91.70
46732;DHT22;32477;51.474;5.696;2023-07-02T08:40:53;23.70;92.20
46732;DHT22;32477;51.474;5.696;2023-07-02T08:43:19;23.50;90.80
46732;DHT22;32477;51.474;5.696;2023-07-02T08:45:45;23.30;90.60
46732;DHT22;32477;51.474;5.696;2023-07-02T08:48:11;23.10;91.40
46732;DHT22;32477;51.474;5.696;2023-07-02T08:50:37;23.40;91.70
46732;DHT22;32477;51.474;5.696;2023-07-02T08:53:02;23.90;90.90
46732;DHT22;32477;51.474;5.696;2023-07-02T08:55:28;23.80;89.70
46732;DHT22;32477;51.474;5.696;2023-07-02T08:57:56;23.50;90.40
46732;DHT22;32477;51.474;5.696;2023-07-02T09:00:26;23.00;90.50
46732;DHT22;32477;51.474;5.696;2023-07-02T09:02:52;22.80;90.90
46732;DHT22;32477;51.474;5.696;2023-07-02T09:05:17;23.00;90.80
46732;DHT22;32477;51.474;5.696;2023-07-02T09:07:47;23.10;90.50
46732;DHT22;32477;51.474;5.696;2023-07-02T09:10:30;22.60;90.60
46732;DHT22;32477;51.474;5.696;2023-07-02T09:13:07;22.00;91.80
46732;DHT22;32477;51.474;5.696;2023-07-02T09:15:37;23.10;92.00
46732;DHT22;32477;51.474;5.696;2023-07-02T09:18:23;24.00;90.60
46732;DHT22;32477;51.474;5.696;2023-07-02T09:20:54;24.00;91.30
46732;DHT22;32477;51.474;5.696;2023-07-02T09:23:20;25.50;90.40
46732;DHT22;32477;51.474;5.696;2023-07-02T09:25:45;26.40;87.80
46732;DHT22;32477;51.474;5.696;2023-07-02T09:28:23;26.70;86.50
46732;DHT22;32477;51.474;5.696;2023-07-02T09:30:51;26.00;85.00
46732;DHT22;32477;51.474;5.696;2023-07-02T09:33:16;24.90;86.40
46732;DHT22;32477;51.474;5.696;2023-07-02T09:35:43;24.50;87.60
46732;DHT22;32477;51.474;5.696;2023-07-02T09:38:09;24.90;87.10
46732;DHT22;32477;51.474;5.696;2023-07-02T09:40:37;24.50;87.40
46732;DHT22;32477;51.474;5.696;2023-07-02T09:43:05;24.10;88.40
46732;DHT22;32477;51.474;5.696;2023-07-02T09:45:30;24.00;89.80
46732;DHT22;32477;51.474;5.696;2023-07-02T09:47:57;25.30;88.10
46732;DHT22;32477;51.474;5.696;2023-07-02T09:50:24;26.50;86.30
46732;DHT22;32477;51.474;5.696;2023-07-02T09:52:50;26.80;84.50
46732;DHT22;32477;51.474;5.696;2023-07-02T09:55:16;26.50;83.20
46732;DHT22;32477;51.474;5.696;2023-07-02T09:57:43;26.40;82.70
46732;DHT22;32477;51.474;5.696;2023-07-02T10:00:09;26.00;81.50
46732;DHT22;32477;51.474;5.696;2023-07-02T10:02:35;26.10;83.20
46732;DHT22;32477;51.474;5.696;2023-07-02T10:05:01;25.30;83.10
46732;DHT22;32477;51.474;5.696;2023-07-02T10:07:31;25.60;82.40
46732;DHT22;32477;51.474;5.696;2023-07-02T10:10:00;25.10;82.90
46732;DHT22;32477;51.474;5.696;2023-07-02T10:12:29;25.20;83.70
46732;DHT22;32477;51.474;5.696;2023-07-02T10:14:57;26.30;81.80
46732;DHT22;32477;51.474;5.696;2023-07-02T10:17:27;26.70;80.90
46732;DHT22;32477;51.474;5.696;2023-07-02T10:20:03;27.60;81.10
46732;DHT22;32477;51.474;5.696;2023-07-02T10:22:49;27.40;81.10
46732;DHT22;32477;51.474;5.696;2023-07-02T10:25:31;26.20;81.10
46732;DHT22;32477;51.474;5.696;2023-07-02T10:27:58;25.70;82.80
46732;DHT22;32477;51.474;5.696;2023-07-02T10:30:36;26.20;83.00
46732;DHT22;32477;51.474;5.696;2023-07-02T10:33:15;26.30;82.80
46732;DHT22;32477;51.474;5.696;2023-07-02T10:35:42;26.50;83.40
46732;DHT22;32477;51.474;5.696;2023-07-02T10:38:13;26.50;82.70
46732;DHT22;32477;51.474;5.696;2023-07-02T10:40:41;25.80;82.80
46732;DHT22;32477;51.474;5.696;2023-07-02T10:43:06;25.80;83.30
46732;DHT22;32477;51.474;5.696;2023-07-02T10:45:34;26.40;82.80
46732;DHT22;32477;51.474;5.696;2023-07-02T10:48:07;26.20;82.40
46732;DHT22;32477;51.474;5.696;2023-07-02T10:50:33;25.40;83.90
46732;DHT22;32477;51.474;5.696;2023-07-02T10:53:00;24.50;84.80
46732;DHT22;32477;51.474;5.696;2023-07-02T10:55:26;24.20;86.30
46732;DHT22;32477;51.474;5.696;2023-07-02T10:58:09;24.40;86.80
46732;DHT22;32477;51.474;5.696;2023-07-02T11:00:49;24.60;86.60
46732;DHT22;32477;51.474;5.696;2023-07-02T11:03:25;25.20;85.50
46732;DHT22;32477;51.474;5.696;2023-07-02T11:05:51;25.10;84.90
46732;DHT22;32477;51.474;5.696;2023-07-02T11:08:18;24.80;84.30
46732;DHT22;32477;51.474;5.696;2023-07-02T11:10:43;25.30;84.90
46732;DHT22;32477;51.474;5.696;2023-07-02T11:13:16;26.30;82.90
46732;DHT22;32477;51.474;5.696;2023-07-02T11:15:42;25.90;82.60
46732;DHT22;32477;51.474;5.696;2023-07-02T11:18:11;25.40;83.20
46732;DHT22;32477;51.474;5.696;2023-07-02T11:20:38;25.20;84.00
46732;DHT22;32477;51.474;5.696;2023-07-02T11:23:05;25.10;83.90
46732;DHT22;32477;51.474;5.696;2023-07-02T11:25:30;26.10;83.50
46732;DHT22;32477;51.474;5.696;2023-07-02T11:28:05;27.20;82.30
46732;DHT22;32477;51.474;5.696;2023-07-02T11:30:31;27.10;81.30
46732;DHT22;32477;51.474;5.696;2023-07-02T11:32:57;26.60;82.00
46732;DHT22;32477;51.474;5.696;2023-07-02T11:35:34;26.40;82.20
46732;DHT22;32477;51.474;5.696;2023-07-02T11:37:59;25.90;82.30
46732;DHT22;32477;51.474;5.696;2023-07-02T11:40:25;25.40;83.00
46732;DHT22;32477;51.474;5.696;2023-07-02T11:42:50;25.30;83.90
46732;DHT22;32477;51.474;5.696;2023-07-02T11:45:16;25.70;83.20
46732;DHT22;32477;51.474;5.696;2023-07-02T11:47:42;26.30;83.00
46732;DHT22;32477;51.474;5.696;2023-07-02T11:50:07;26.80;82.50
46732;DHT22;32477;51.474;5.696;2023-07-02T11:52:33;26.20;82.60
46732;DHT22;32477;51.474;5.696;2023-07-02T11:54:59;26.20;83.20
46732;DHT22;32477;51.474;5.696;2023-07-02T11:57:24;26.60;82.40
46732;DHT22;32477;51.474;5.696;2023-07-02T11:59:50;26.90;82.90
46732;DHT22;32477;51.474;5.696;2023-07-02T12:02:17;27.70;81.30
46732;DHT22;32477;51.474;5.696;2023-07-02T12:04:43;26.70;82.20
46732;DHT22;32477;51.474;5.696;2023-07-02T12:07:09;25.80;83.40
46732;DHT22;32477;51.474;5.696;2023-07-02T12:09:35;24.90;84.90
46732;DHT22;32477;51.474;5.696;2023-07-02T12:12:01;24.10;87.00
46732;DHT22;32477;51.474;5.696;2023-07-02T12:14:26;24.00;88.10
46732;DHT22;32477;51.474;5.696;2023-07-02T12:16:52;25.00;87.60
46732;DHT22;32477;51.474;5.696;2023-07-02T12:19:17;26.40;85.40
46732;DHT22;32477;51.474;5.696;2023-07-02T12:21:43;25.90;83.90
46732;DHT22;32477;51.474;5.696;2023-07-02T12:24:08;26.30;83.20
46732;DHT22;32477;51.474;5.696;2023-07-02T12:26:39;26.70;82.90
46732;DHT22;32477;51.474;5.696;2023-07-02T12:29:05;27.00;81.50
46732;DHT22;32477;51.474;5.696;2023-07-02T12:31:31;27.30;81.70
46732;DHT22;32477;51.474;5.696;2023-07-02T12:33:57;28.00;80.10
46732;DHT22;32477;51.474;5.696;2023-07-02T12:36:23;28.50;80.30
46732;DHT22;32477;51.474;5.696;2023-07-02T12:38:49;29.50;79.30
46732;DHT22;32477;51.474;5.696;2023-07-02T12:41:15;29.50;78.20
46732;DHT22;32477;51.474;5.696;2023-07-02T12:43:40;29.60;77.60
46732;DHT22;32477;51.474;5.696;2023-07-02T12:46:06;29.50;77.20
46732;DHT22;32477;51.474;5.696;2023-07-02T12:48:32;29.40;77.40
46732;DHT22;32477;51.474;5.696;2023-07-02T12:50:59;28.40;77.20
46732;DHT22;32477;51.474;5.696;2023-07-02T12:53:26;28.00;79.80
46732;DHT22;32477;51.474;5.696;2023-07-02T12:55:51;28.10;78.00
46732;DHT22;32477;51.474;5.696;2023-07-02T12:58:17;26.80;78.80
46732;DHT22;32477;51.474;5.696;2023-07-02T13:00:43;25.40;81.40
46732;DHT22;32477;51.474;5.696;2023-07-02T13:03:11;24.70;82.80
46732;DHT22;32477;51.474;5.696;2023-07-02T13:05:37;25.10;82.60
46732;DHT22;32477;51.474;5.696;2023-07-02T13:08:03;24.70;81.10
46732;DHT22;32477;51.474;5.696;2023-07-02T13:10:29;25.60;80.10
46732;DHT22;32477;51.474;5.696;2023-07-02T13:12:55;26.30;78.90
46732;DHT22;32477;51.474;5.696;2023-07-02T13:15:21;26.40;78.20
46732;DHT22;32477;51.474;5.696;2023-07-02T13:17:47;26.60;78.50
46732;DHT22;32477;51.474;5.696;2023-07-02T13:20:12;27.50;76.80
46732;DHT22;32477;51.474;5.696;2023-07-02T13:22:38;28.50;75.40
46732;DHT22;32477;51.474;5.696;2023-07-02T13:25:04;28.30;73.30
46732;DHT22;32477;51.474;5.696;2023-07-02T13:27:30;27.80;74.80
46732;DHT22;32477;51.474;5.696;2023-07-02T13:29:56;28.30;73.60
46732;DHT22;32477;51.474;5.696;2023-07-02T13:32:21;28.00;74.70
46732;DHT22;32477;51.474;5.696;2023-07-02T13:34:47;27.90;74.20
46732;DHT22;32477;51.474;5.696;2023-07-02T13:37:12;28.60;74.40
46732;DHT22;32477;51.474;5.696;2023-07-02T13:39:39;28.00;73.40
46732;DHT22;32477;51.474;5.696;2023-07-02T13:42:05;27.90;73.40
46732;DHT22;32477;51.474;5.696;2023-07-02T13:44:31;28.20;72.70
46732;DHT22;32477;51.474;5.696;2023-07-02T13:46:57;27.40;73.20
46732;DHT22;32477;51.474;5.696;2023-07-02T13:49:22;26.90;74.20
46732;DHT22;32477;51.474;5.696;2023-07-02T13:51:48;27.40;74.50
46732;DHT22;32477;51.474;5.696;2023-07-02T13:54:16;27.20;74.50
46732;DHT22;32477;51.474;5.696;2023-07-02T13:56:41;27.40;74.70
46732;DHT22;32477;51.474;5.696;2023-07-02T13:59:07;27.10;74.10
46732;DHT22;32477;51.474;5.696;2023-07-02T14:01:32;26.80;75.40
46732;DHT22;32477;51.474;5.696;2023-07-02T14:03:59;26.40;75.80
46732;DHT22;32477;51.474;5.696;2023-07-02T14:06:25;25.80;75.60
46732;DHT22;32477;51.474;5.696;2023-07-02T14:08:51;25.40;76.10
46732;DHT22;32477;51.474;5.696;2023-07-02T14:11:16;25.20;78.10
46732;DHT22;32477;51.474;5.696;2023-07-02T14:13:42;26.30;76.20
46732;DHT22;32477;51.474;5.696;2023-07-02T14:16:08;26.40;75.00
46732;DHT22;32477;51.474;5.696;2023-07-02T14:18:33;25.40;76.50
46732;DHT22;32477;51.474;5.696;2023-07-02T14:20:59;25.30;77.40
46732;DHT22;32477;51.474;5.696;2023-07-02T14:23:25;25.80;77.20
46732;DHT22;32477;51.474;5.696;2023-07-02T14:25:50;26.50;75.50
46732;DHT22;32477;51.474;5.696;2023-07-02T14:28:16;27.00;75.20
46732;DHT22;32477;51.474;5.696;2023-07-02T14:30:42;27.50;74.80
46732;DHT22;32477;51.474;5.696;2023-07-02T14:33:08;26.90;74.50
46732;DHT22;32477;51.474;5.696;2023-07-02T14:35:34;26.10;76.10
46732;DHT22;32477;51.474;5.696;2023-07-02T14:38:01;25.80;76.70
46732;DHT22;32477;51.474;5.696;2023-07-02T14:40:26;25.40;77.10
46732;DHT22;32477;51.474;5.696;2023-07-02T14:42:52;25.40;77.50
46732;DHT22;32477;51.474;5.696;2023-07-02T14:45:18;26.00;77.40
46732;DHT22;32477;51.474;5.696;2023-07-02T14:47:43;27.10;75.90
46732;DHT22;32477;51.474;5.696;2023-07-02T14:50:09;26.80;75.40
46732;DHT22;32477;51.474;5.696;2023-07-02T14:52:34;26.50;75.80
46732;DHT22;32477;51.474;5.696;2023-07-02T14:55:00;26.90;76.00
46732;DHT22;32477;51.474;5.696;2023-07-02T14:57:27;26.70;75.60
46732;DHT22;32477;51.474;5.696;2023-07-02T14:59:53;26.20;75.10
46732;DHT22;32477;51.474;5.696;2023-07-02T15:02:18;26.20;76.40
46732;DHT22;32477;51.474;5.696;2023-07-02T15:04:44;25.60;76.70
46732;DHT22;32477;51.474;5.696;2023-07-02T15:07:10;25.60;76.60
46732;DHT22;32477;51.474;5.696;2023-07-02T15:09:36;24.90;78.00
46732;DHT22;32477;51.474;5.696;2023-07-02T15:12:02;24.30;79.20
46732;DHT22;32477;51.474;5.696;2023-07-02T15:14:27;23.90;79.90
46732;DHT22;32477;51.474;5.696;2023-07-02T15:16:53;23.80;80.20
46732;DHT22;32477;51.474;5.696;2023-07-02T15:19:19;23.60;79.90
46732;DHT22;32477;51.474;5.696;2023-07-02T15:21:44;23.70;80.40
46732;DHT22;32477;51.474;5.696;2023-07-02T15:24:10;23.80;80.40
46732;DHT22;32477;51.474;5.696;2023-07-02T15:26:38;23.90;80.40